createdAt,value
2023-01-28T00:02:20.988Z,0.30
2023-01-28T00:04:49.121Z,0.40
2023-01-28T00:07:15.861Z,0.40
2023-01-28T00:09:42.575Z,0.40
2023-01-28T00:12:09.280Z,0.40
2023-01-28T00:14:36.011Z,0.40
2023-01-28T00:17:04.840Z,0.40
2023-01-28T00:19:31.563Z,0.40
2023-01-28T00:21:59.622Z,0.40
2023-01-28T00:24:26.428Z,0.40
2023-01-28T00:26:53.173Z,0.40
2023-01-28T00:29:19.854Z,0.40
2023-01-28T00:31:46.732Z,0.40
2023-01-28T00:34:13.466Z,0.40
2023-01-28T00:36:40.163Z,0.40
2023-01-28T00:39:13.771Z,0.30
2023-01-28T00:41:40.541Z,0.40
2023-01-28T00:44:08.993Z,0.30
2023-01-28T00:46:35.685Z,0.30
2023-01-28T00:49:02.587Z,0.30
2023-01-28T00:51:29.302Z,0.30
2023-01-28T00:53:56.017Z,0.30
2023-01-28T00:56:24.113Z,0.40
2023-01-28T00:58:50.858Z,0.40
2023-01-28T01:01:19.594Z,0.40
2023-01-28T01:03:46.779Z,0.30
2023-01-28T01:06:15.873Z,0.30
2023-01-28T01:08:42.664Z,0.30
2023-01-28T01:11:10.533Z,0.30
2023-01-28T01:13:39.031Z,0.30
2023-01-28T01:16:08.133Z,0.30
2023-01-28T01:18:35.720Z,0.30
2023-01-28T01:21:02.627Z,0.30
2023-01-28T01:23:31.058Z,0.30
2023-01-28T01:25:57.784Z,0.30
2023-01-28T01:28:24.536Z,0.30
2023-01-28T01:30:59.768Z,0.30
2023-01-28T01:33:27.924Z,0.30
2023-01-28T01:35:55.153Z,0.30
2023-01-28T01:38:21.920Z,0.30
2023-01-28T01:40:48.683Z,0.20
2023-01-28T01:43:17.409Z,0.30
2023-01-28T01:45:44.830Z,0.30
2023-01-28T01:48:18.888Z,0.30
2023-01-28T01:50:52.892Z,0.30
2023-01-28T01:53:21.827Z,0.30
2023-01-28T01:55:51.781Z,0.30
2023-01-28T01:58:21.522Z,0.30
2023-01-28T02:00:48.224Z,0.30
2023-01-28T02:03:19.974Z,0.30
2023-01-28T02:05:46.697Z,0.20
2023-01-28T02:08:13.729Z,0.20
2023-01-28T02:10:40.482Z,0.20
2023-01-28T02:13:07.195Z,0.30
2023-01-28T02:15:34.368Z,0.30
2023-01-28T02:18:01.226Z,0.30
2023-01-28T02:20:40.535Z,0.30
2023-01-28T02:23:37.053Z,0.30
2023-01-28T02:26:19.423Z,0.30
2023-01-28T02:28:51.941Z,0.30
2023-01-28T02:31:23.573Z,0.30
2023-01-28T02:33:56.437Z,0.30
2023-01-28T02:36:28.547Z,0.30
2023-01-28T02:38:59.046Z,0.30
2023-01-28T02:41:29.862Z,0.30
2023-01-28T02:43:57.927Z,0.30
2023-01-28T02:46:36.204Z,0.30
2023-01-28T02:49:07.845Z,0.30
2023-01-28T02:51:51.601Z,0.30
2023-01-28T02:54:27.098Z,0.30
2023-01-28T02:57:01.514Z,0.20
2023-01-28T02:59:35.115Z,0.20
2023-01-28T03:02:09.155Z,0.20
2023-01-28T03:04:40.888Z,0.20
2023-01-28T03:07:10.605Z,0.20
2023-01-28T03:09:39.148Z,0.20
2023-01-28T03:12:08.901Z,0.30
2023-01-28T03:14:38.986Z,0.30
2023-01-28T03:17:08.121Z,0.20
2023-01-28T03:19:34.882Z,0.20
2023-01-28T03:22:01.770Z,0.20
2023-01-28T03:24:32.500Z,0.20
2023-01-28T03:27:04.048Z,0.20
2023-01-28T03:29:33.004Z,0.20
2023-01-28T03:32:02.275Z,0.20
2023-01-28T03:34:29.215Z,0.20
2023-01-28T03:36:56.484Z,0.20
2023-01-28T03:39:25.909Z,0.20
2023-01-28T03:42:00.297Z,0.20
2023-01-28T03:44:27.397Z,0.20
2023-01-28T03:46:54.100Z,0.20
2023-01-28T03:49:22.171Z,0.20
2023-01-28T03:51:48.857Z,0.20
2023-01-28T03:54:15.543Z,0.20
2023-01-28T03:56:42.268Z,0.20
2023-01-28T03:59:09.032Z,0.20
2023-01-28T04:01:35.865Z,0.20
2023-01-28T04:04:02.587Z,0.20
2023-01-28T04:06:30.684Z,0.30
2023-01-28T04:08:57.396Z,0.20
2023-01-28T04:11:24.107Z,0.20
2023-01-28T04:13:50.834Z,0.30
2023-01-28T04:16:18.886Z,0.20
2023-01-28T04:18:45.684Z,0.20
2023-01-28T04:21:12.511Z,0.20
2023-01-28T04:23:40.575Z,0.20
2023-01-28T04:26:07.286Z,0.20
2023-01-28T04:28:34.072Z,0.20
2023-01-28T04:31:00.925Z,0.20
2023-01-28T04:33:27.745Z,0.20
2023-01-28T04:35:54.476Z,0.20
2023-01-28T04:38:21.278Z,0.20
2023-01-28T04:40:51.646Z,0.20
2023-01-28T04:43:18.719Z,0.20
2023-01-28T04:45:45.750Z,0.20
2023-01-28T04:48:12.757Z,0.20
2023-01-28T04:50:39.496Z,0.20
2023-01-28T04:53:06.267Z,0.20
2023-01-28T04:55:32.999Z,0.20
2023-01-28T04:58:01.109Z,0.20
2023-01-28T05:00:28.008Z,0.20
2023-01-28T05:02:54.724Z,0.10
2023-01-28T05:05:21.553Z,0.10
2023-01-28T05:07:51.815Z,0.20
2023-01-28T05:10:18.633Z,0.20
2023-01-28T05:12:45.472Z,0.20
2023-01-28T05:15:14.106Z,0.20
2023-01-28T05:17:41.075Z,0.20
2023-01-28T05:20:09.114Z,0.20
2023-01-28T05:22:35.862Z,0.20
2023-01-28T05:25:02.578Z,0.20
2023-01-28T05:27:29.411Z,0.20
2023-01-28T05:29:56.163Z,0.20
2023-01-28T05:32:24.508Z,0.20
2023-01-28T05:34:51.238Z,0.20
2023-01-28T05:37:18.020Z,0.20
2023-01-28T05:39:44.739Z,0.20
2023-01-28T05:42:11.451Z,0.20
2023-01-28T05:44:38.177Z,0.20
2023-01-28T05:47:04.996Z,0.20
2023-01-28T05:49:33.042Z,0.20
2023-01-28T05:51:59.820Z,0.20
2023-01-28T05:54:26.553Z,0.20
2023-01-28T05:56:53.278Z,0.20
2023-01-28T05:59:19.969Z,0.20
2023-01-28T06:01:46.767Z,0.20
2023-01-28T06:04:13.508Z,0.20
2023-01-28T06:06:41.615Z,0.20
2023-01-28T06:09:08.339Z,0.20
2023-01-28T06:11:35.052Z,0.20
2023-01-28T06:14:01.771Z,0.20
2023-01-28T06:16:28.517Z,0.20
2023-01-28T06:18:55.228Z,0.10
2023-01-28T06:21:21.939Z,0.20
2023-01-28T06:23:49.989Z,0.20
2023-01-28T06:26:16.716Z,0.20
2023-01-28T06:28:43.415Z,0.20
2023-01-28T06:31:10.268Z,0.20
2023-01-28T06:33:37.019Z,0.30
2023-01-28T06:36:04.091Z,0.20
2023-01-28T06:38:30.804Z,0.20
2023-01-28T06:40:58.954Z,0.20
2023-01-28T06:43:25.684Z,0.20
2023-01-28T06:45:52.442Z,0.20
2023-01-28T06:48:19.214Z,0.20
2023-01-28T06:50:47.061Z,0.20
2023-01-28T06:53:13.852Z,0.20
2023-01-28T06:55:40.566Z,0.20
2023-01-28T06:58:08.968Z,0.20
2023-01-28T07:00:35.978Z,0.20
2023-01-28T07:03:02.745Z,0.20
2023-01-28T07:05:29.495Z,0.20
2023-01-28T07:07:56.202Z,0.20
2023-01-28T07:10:22.949Z,0.20
2023-01-28T07:12:49.738Z,0.20
2023-01-28T07:15:18.052Z,0.20
2023-01-28T07:17:45.206Z,0.20
2023-01-28T07:20:14.233Z,0.20
2023-01-28T07:22:42.681Z,0.20
2023-01-28T07:25:10.824Z,0.20
2023-01-28T07:27:37.838Z,0.20
2023-01-28T07:30:05.744Z,0.20
2023-01-28T07:32:33.799Z,0.20
2023-01-28T07:35:00.526Z,0.20
2023-01-28T07:37:27.285Z,0.20
2023-01-28T07:39:53.999Z,0.20
2023-01-28T07:42:20.710Z,0.20
2023-01-28T07:44:47.465Z,0.30
2023-01-28T07:47:14.273Z,0.30
2023-01-28T07:49:42.398Z,0.20
2023-01-28T07:52:09.590Z,0.20
2023-01-28T07:54:36.359Z,0.20
2023-01-28T07:57:07.770Z,0.20
2023-01-28T07:59:34.482Z,0.30
2023-01-28T08:02:01.217Z,0.30
2023-01-28T08:04:28.193Z,0.30
2023-01-28T08:06:57.548Z,0.30
2023-01-28T08:09:24.419Z,0.30
2023-01-28T08:11:51.153Z,0.20
2023-01-28T08:14:17.901Z,0.20
2023-01-28T08:16:44.634Z,0.30
2023-01-28T08:19:11.448Z,0.20
2023-01-28T08:21:38.194Z,0.30
2023-01-28T08:24:07.053Z,0.30
2023-01-28T08:26:33.829Z,0.30
2023-01-28T08:29:00.530Z,0.30
2023-01-28T08:31:27.887Z,0.30
2023-01-28T08:33:54.652Z,0.20
2023-01-28T08:36:21.388Z,0.30
2023-01-28T08:38:52.103Z,0.30
2023-01-28T08:41:20.566Z,0.30
2023-01-28T08:43:48.002Z,0.30
2023-01-28T08:46:14.849Z,0.30
2023-01-28T08:48:41.653Z,0.30
2023-01-28T08:51:08.514Z,0.40
2023-01-28T08:53:35.311Z,0.40
2023-01-28T08:56:02.083Z,0.40
2023-01-28T08:58:30.154Z,0.40
2023-01-28T09:00:57.231Z,0.40
2023-01-28T09:03:24.074Z,0.40
2023-01-28T09:05:50.806Z,0.40
2023-01-28T09:08:17.574Z,0.40
2023-01-28T09:10:44.343Z,0.40
2023-01-28T09:13:13.710Z,0.40
2023-01-28T09:15:42.152Z,0.50
2023-01-28T09:18:09.296Z,0.40
2023-01-28T09:20:37.461Z,0.50
2023-01-28T09:23:05.134Z,0.40
2023-01-28T09:25:31.989Z,0.40
2023-01-28T09:27:58.830Z,0.40
2023-01-28T09:30:26.352Z,0.40
2023-01-28T09:32:55.921Z,0.50
2023-01-28T09:35:22.931Z,0.50
2023-01-28T09:37:49.769Z,0.50
2023-01-28T09:40:20.153Z,0.50
2023-01-28T09:43:01.587Z,0.50
2023-01-28T09:45:33.687Z,0.50
2023-01-28T09:48:05.773Z,0.50
2023-01-28T09:50:34.241Z,0.50
2023-01-28T09:53:05.666Z,0.50
2023-01-28T09:55:35.050Z,0.50
2023-01-28T09:58:10.038Z,0.50
2023-01-28T10:00:39.645Z,0.50
2023-01-28T10:03:23.205Z,0.50
2023-01-28T10:05:55.772Z,0.50
2023-01-28T10:08:38.169Z,0.50
2023-01-28T10:11:16.446Z,0.50
2023-01-28T10:13:52.070Z,0.50
2023-01-28T10:16:29.244Z,0.50
2023-01-28T10:19:01.173Z,0.50
2023-01-28T10:21:34.544Z,0.50
2023-01-28T10:24:05.534Z,0.60
2023-01-28T10:26:35.442Z,0.60
2023-01-28T10:29:09.839Z,0.50
2023-01-28T10:31:41.849Z,0.60
2023-01-28T10:34:11.307Z,0.60
2023-01-28T10:36:38.183Z,0.60
2023-01-28T10:39:05.158Z,0.70
2023-01-28T10:41:32.614Z,0.70
2023-01-28T10:43:59.393Z,0.70
2023-01-28T10:46:30.050Z,0.70
2023-01-28T10:49:04.143Z,0.70
2023-01-28T10:51:35.337Z,0.70
2023-01-28T10:54:02.603Z,0.80
2023-01-28T10:56:31.451Z,0.80
2023-01-28T10:59:01.275Z,0.80
2023-01-28T11:01:40.127Z,0.80
2023-01-28T11:04:15.250Z,0.80
2023-01-28T11:06:51.522Z,0.80
2023-01-28T11:09:22.781Z,0.80
2023-01-28T11:11:49.490Z,0.80
2023-01-28T11:14:21.139Z,0.80
2023-01-28T11:16:48.786Z,0.80
2023-01-28T11:19:18.365Z,0.80
2023-01-28T11:21:51.400Z,0.90
2023-01-28T11:24:22.812Z,0.90
2023-01-28T11:26:52.835Z,0.90
2023-01-28T11:29:24.229Z,0.90
2023-01-28T11:31:51.208Z,0.90
2023-01-28T11:34:19.790Z,0.90
2023-01-28T11:37:00.672Z,0.90
2023-01-28T11:39:27.403Z,0.90
2023-01-28T11:41:54.476Z,0.90
2023-01-28T11:44:23.741Z,0.90
2023-01-28T11:47:10.886Z,0.90
2023-01-28T11:49:52.528Z,0.90
2023-01-28T11:52:31.994Z,0.90
2023-01-28T11:55:21.481Z,0.90
2023-01-28T11:58:00.785Z,0.90
2023-01-28T12:00:38.102Z,0.90
2023-01-28T12:03:24.747Z,0.90
2023-01-28T12:05:53.334Z,0.90
2023-01-28T12:08:29.114Z,0.90
2023-01-28T12:11:19.224Z,0.90
2023-01-28T12:13:59.555Z,1.00
2023-01-28T12:16:43.264Z,1.00
2023-01-28T12:19:34.609Z,1.00
2023-01-28T12:22:33.798Z,1.00
2023-01-28T12:25:20.521Z,1.00
2023-01-28T12:27:52.015Z,1.00
2023-01-28T12:30:28.429Z,1.00
2023-01-28T12:33:08.291Z,1.00
2023-01-28T12:35:47.979Z,1.00
2023-01-28T12:38:16.031Z,1.00
2023-01-28T12:40:53.050Z,1.00
2023-01-28T12:43:25.219Z,1.00
2023-01-28T12:45:56.371Z,1.00
2023-01-28T12:48:30.540Z,1.10
2023-01-28T12:51:03.471Z,1.00
2023-01-28T12:53:38.861Z,1.10
2023-01-28T12:56:12.099Z,1.10
2023-01-28T12:58:45.179Z,1.00
2023-01-28T13:01:18.287Z,1.00
2023-01-28T13:03:53.272Z,1.00
2023-01-28T13:06:25.958Z,1.00
2023-01-28T13:08:59.437Z,1.10
2023-01-28T13:11:33.748Z,1.00
2023-01-28T13:14:01.196Z,1.10
2023-01-28T13:16:36.959Z,1.10
2023-01-28T13:19:21.380Z,1.10
2023-01-28T13:21:49.669Z,1.10
2023-01-28T13:24:23.285Z,1.10
2023-01-28T13:26:54.233Z,1.00
2023-01-28T13:29:29.379Z,1.10
2023-01-28T13:31:58.147Z,1.10
2023-01-28T13:34:33.994Z,1.10
2023-01-28T13:37:05.916Z,1.10
2023-01-28T13:39:36.205Z,1.10
2023-01-28T13:42:22.046Z,1.10
2023-01-28T13:44:48.793Z,1.10
2023-01-28T13:47:23.086Z,1.10
2023-01-28T13:49:54.796Z,1.10
2023-01-28T13:52:26.571Z,1.10
2023-01-28T13:54:59.823Z,1.10
2023-01-28T13:58:10.178Z,1.10
2023-01-28T14:00:55.433Z,1.10
2023-01-28T14:04:03.762Z,1.10
2023-01-28T14:07:00.199Z,1.10
2023-01-28T14:09:48.711Z,1.10
2023-01-28T14:12:54.117Z,1.10
2023-01-28T14:15:55.733Z,1.10
2023-01-28T14:18:27.360Z,1.10
2023-01-28T14:20:56.223Z,1.10
2023-01-28T14:23:24.269Z,1.10
2023-01-28T14:26:01.570Z,1.10
2023-01-28T14:28:39.368Z,1.10
2023-01-28T14:31:12.028Z,1.10
2023-01-28T14:33:40.616Z,1.10
2023-01-28T14:36:10.711Z,1.10
2023-01-28T14:38:41.076Z,1.10
2023-01-28T14:41:09.126Z,1.10
2023-01-28T14:43:38.181Z,1.10
2023-01-28T14:46:24.520Z,1.10
2023-01-28T14:49:02.819Z,1.10
2023-01-28T14:51:48.388Z,1.10
2023-01-28T14:54:36.658Z,1.10
2023-01-28T14:57:27.031Z,1.10
2023-01-28T14:59:56.544Z,1.10
2023-01-28T15:02:26.316Z,1.10
2023-01-28T15:04:54.276Z,1.10
2023-01-28T15:07:23.079Z,1.10
2023-01-28T15:10:00.220Z,1.10
2023-01-28T15:12:27.391Z,1.10
2023-01-28T15:14:54.383Z,1.10
2023-01-28T15:17:28.046Z,1.00
2023-01-28T15:19:57.139Z,1.00
2023-01-28T15:22:27.941Z,1.00
2023-01-28T15:24:55.901Z,1.00
2023-01-28T15:27:27.503Z,1.00
2023-01-28T15:29:56.557Z,1.00
2023-01-28T15:32:28.474Z,1.00
2023-01-28T15:34:55.749Z,1.00
2023-01-28T15:37:22.655Z,1.00
2023-01-28T15:40:00.752Z,1.00
2023-01-28T15:42:28.357Z,1.00
2023-01-28T15:44:56.723Z,1.00
2023-01-28T15:47:26.136Z,1.00
2023-01-28T15:49:56.782Z,1.00
2023-01-28T15:52:32.816Z,1.00
2023-01-28T15:54:59.708Z,1.00
2023-01-28T15:57:30.619Z,1.00
2023-01-28T16:00:11.401Z,1.00
2023-01-28T16:02:43.774Z,1.00
2023-01-28T16:05:27.647Z,1.00
2023-01-28T16:07:55.593Z,1.00
2023-01-28T16:10:25.940Z,1.00
2023-01-28T16:12:56.014Z,1.00
2023-01-28T16:15:23.176Z,1.00
2023-01-28T16:17:51.957Z,1.00
2023-01-28T16:20:22.383Z,1.00
2023-01-28T16:22:51.662Z,1.00
2023-01-28T16:25:30.856Z,1.00
2023-01-28T16:27:58.779Z,1.00
2023-01-28T16:30:26.222Z,1.00
2023-01-28T16:32:53.574Z,1.00
2023-01-28T16:35:21.904Z,1.00
2023-01-28T16:37:50.325Z,1.00
2023-01-28T16:40:19.400Z,1.00
2023-01-28T16:42:46.715Z,1.00
2023-01-28T16:45:17.844Z,1.00
2023-01-28T16:47:45.195Z,1.00
2023-01-28T16:50:12.957Z,1.00
2023-01-28T16:52:39.904Z,1.00
2023-01-28T16:55:12.276Z,1.00
2023-01-28T16:57:40.233Z,1.00
2023-01-28T17:00:08.627Z,1.00
2023-01-28T17:02:35.459Z,1.00
2023-01-28T17:05:02.196Z,1.00
2023-01-28T17:07:28.908Z,1.00
2023-01-28T17:09:55.626Z,1.00
2023-01-28T17:12:23.692Z,1.00
2023-01-28T17:14:50.439Z,1.00
2023-01-28T17:17:17.187Z,1.00
2023-01-28T17:19:44.022Z,1.00
2023-01-28T17:22:10.757Z,1.00
2023-01-28T17:24:37.598Z,1.00
2023-01-28T17:27:04.345Z,1.00
2023-01-28T17:29:32.746Z,1.00
2023-01-28T17:31:59.539Z,1.00
2023-01-28T17:34:26.357Z,1.00
2023-01-28T17:36:53.109Z,1.00
2023-01-28T17:39:19.820Z,1.00
2023-01-28T17:41:46.538Z,1.00
2023-01-28T17:44:13.773Z,1.00
2023-01-28T17:46:42.800Z,1.00
2023-01-28T17:49:09.494Z,1.00
2023-01-28T17:51:36.318Z,1.00
2023-01-28T17:54:03.238Z,1.00
2023-01-28T17:56:30.671Z,1.00
2023-01-28T17:58:59.138Z,1.00
2023-01-28T18:01:26.543Z,1.00
2023-01-28T18:03:54.819Z,1.00
2023-01-28T18:06:21.962Z,1.00
2023-01-28T18:08:48.701Z,1.00
2023-01-28T18:11:17.004Z,1.00
2023-01-28T18:13:44.280Z,1.00
2023-01-28T18:16:14.990Z,1.00
2023-01-28T18:18:42.380Z,1.00
2023-01-28T18:21:21.177Z,1.00
2023-01-28T18:23:48.288Z,1.00
2023-01-28T18:26:14.996Z,1.00
2023-01-28T18:28:41.697Z,1.00
2023-01-28T18:31:08.785Z,1.00
2023-01-28T18:33:35.561Z,1.00
2023-01-28T18:36:05.359Z,1.00
2023-01-28T18:38:33.433Z,1.00
2023-01-28T18:41:00.135Z,1.00
2023-01-28T18:43:27.219Z,1.00
2023-01-28T18:45:53.992Z,1.00
2023-01-28T18:48:20.771Z,1.00
2023-01-28T18:50:50.115Z,1.00
2023-01-28T18:53:16.887Z,1.00
2023-01-28T18:55:45.692Z,1.00
2023-01-28T18:58:13.092Z,1.00
2023-01-28T19:00:39.897Z,1.00
2023-01-28T19:03:06.790Z,1.00
2023-01-28T19:05:35.114Z,1.00
2023-01-28T19:08:01.965Z,1.00
2023-01-28T19:10:29.551Z,1.00
2023-01-28T19:12:57.649Z,1.00
2023-01-28T19:15:24.501Z,1.00
2023-01-28T19:17:51.948Z,1.00
2023-01-28T19:20:20.625Z,1.00
2023-01-28T19:22:48.110Z,1.00
2023-01-28T19:25:15.249Z,1.00
2023-01-28T19:27:42.155Z,1.00
2023-01-28T19:30:11.485Z,1.00
2023-01-28T19:32:38.209Z,1.00
2023-01-28T19:35:05.974Z,1.00
2023-01-28T19:37:33.585Z,1.00
2023-01-28T19:40:00.371Z,1.00
2023-01-28T19:42:27.084Z,1.00
2023-01-28T19:44:53.856Z,1.00
2023-01-28T19:47:21.929Z,1.00
2023-01-28T19:49:48.761Z,1.00
2023-01-28T19:52:15.500Z,1.00
2023-01-28T19:54:42.208Z,1.00
2023-01-28T19:57:09.021Z,1.00
2023-01-28T19:59:35.734Z,1.00
2023-01-28T20:02:02.551Z,1.00
2023-01-28T20:04:30.659Z,1.00
2023-01-28T20:06:57.399Z,1.00
2023-01-28T20:09:24.119Z,1.00
2023-01-28T20:11:51.598Z,1.00
2023-01-28T20:14:19.046Z,1.00
2023-01-28T20:16:45.796Z,1.00
2023-01-28T20:19:15.039Z,1.00
2023-01-28T20:21:43.526Z,1.00
2023-01-28T20:24:11.667Z,1.00
2023-01-28T20:26:39.786Z,1.00
2023-01-28T20:29:08.850Z,1.00
2023-01-28T20:31:38.313Z,1.00
2023-01-28T20:34:05.454Z,1.00
2023-01-28T20:36:32.317Z,1.00
2023-01-28T20:39:00.405Z,1.00
2023-01-28T20:41:27.436Z,1.00
2023-01-28T20:43:55.954Z,1.00
2023-01-28T20:46:24.807Z,1.00
2023-01-28T20:48:54.061Z,1.00
2023-01-28T20:51:22.588Z,1.00
2023-01-28T20:53:50.678Z,1.00
2023-01-28T20:56:21.157Z,1.00
2023-01-28T20:58:53.744Z,1.00
2023-01-28T21:01:22.118Z,1.00
2023-01-28T21:03:49.379Z,1.00
2023-01-28T21:06:16.523Z,1.00
2023-01-28T21:08:43.937Z,1.00
2023-01-28T21:11:11.017Z,1.00
2023-01-28T21:13:39.100Z,1.00
2023-01-28T21:16:06.825Z,1.00
2023-01-28T21:18:33.690Z,1.00
2023-01-28T21:21:03.856Z,1.00
2023-01-28T21:23:31.157Z,1.00
2023-01-28T21:26:01.251Z,1.00
2023-01-28T21:28:28.050Z,1.00
2023-01-28T21:31:04.664Z,1.00
2023-01-28T21:33:31.370Z,1.00
2023-01-28T21:35:58.069Z,1.00
2023-01-28T21:38:24.864Z,1.00
2023-01-28T21:40:51.599Z,1.00
2023-01-28T21:43:18.352Z,1.00
2023-01-28T21:45:45.234Z,0.90
2023-01-28T21:48:13.455Z,0.90
2023-01-28T21:50:40.164Z,1.00
2023-01-28T21:53:06.903Z,1.00
2023-01-28T21:55:33.690Z,1.00
2023-01-28T21:58:00.404Z,1.00
2023-01-28T22:00:27.106Z,0.90
2023-01-28T22:02:53.888Z,1.00
2023-01-28T22:05:21.982Z,0.90
2023-01-28T22:07:48.681Z,1.00
2023-01-28T22:10:16.052Z,0.90
2023-01-28T22:12:42.986Z,0.90
2023-01-28T22:15:10.525Z,0.90
2023-01-28T22:17:37.235Z,0.90
2023-01-28T22:20:04.690Z,1.00
2023-01-28T22:22:32.763Z,1.00
2023-01-28T22:24:59.465Z,1.00
2023-01-28T22:27:28.527Z,1.00
2023-01-28T22:29:55.523Z,1.00
2023-01-28T22:32:22.400Z,0.90
2023-01-28T22:34:49.289Z,0.90
2023-01-28T22:37:15.985Z,0.90
2023-01-28T22:39:44.086Z,0.90
2023-01-28T22:42:10.807Z,0.90
2023-01-28T22:44:37.523Z,0.90
2023-01-28T22:47:05.320Z,1.00
2023-01-28T22:49:32.024Z,0.90
2023-01-28T22:51:58.754Z,0.90
2023-01-28T22:54:25.599Z,0.90
2023-01-28T22:56:53.674Z,0.90
2023-01-28T22:59:20.391Z,0.90
2023-01-28T23:01:47.126Z,0.90
2023-01-28T23:04:13.866Z,0.90
2023-01-28T23:06:40.568Z,0.80
2023-01-28T23:09:07.569Z,0.90
2023-01-28T23:11:34.352Z,0.90
2023-01-28T23:14:03.824Z,0.90
2023-01-28T23:16:31.033Z,0.90
2023-01-28T23:18:57.748Z,0.90
2023-01-28T23:21:25.780Z,0.80
2023-01-28T23:23:52.491Z,0.90
2023-01-28T23:26:19.237Z,0.80
2023-01-28T23:28:45.951Z,0.80
2023-01-28T23:31:14.132Z,0.80
2023-01-28T23:33:40.906Z,0.80
2023-01-28T23:36:08.212Z,0.80
2023-01-28T23:38:34.936Z,0.80
2023-01-28T23:41:01.621Z,0.80
2023-01-28T23:43:28.331Z,0.80
2023-01-28T23:45:55.041Z,0.80
2023-01-28T23:48:23.149Z,0.80
2023-01-28T23:50:54.513Z,0.80
2023-01-28T23:53:21.291Z,0.80
2023-01-28T23:55:47.995Z,0.80
2023-01-28T23:58:14.768Z,0.80
